Time;durP1;ratioP1;P1;durP2;ratioP2;P2;SDS_P1;SDS_P2;PMS_P1;PMS_P2;Temp;Humidity;BMP_temperature;BMP_pressure;BME280_temperature;BME280_humidity;BME280_pressure;Samples;Min_cycle;Max_cycle;Signal;HPM_P1;HPM_P2
2022/06/08 00:00:58;;;;;;;5.20;3.08;;;;;;;15.24;90.18;99118.22;5012352;28;20061;-71
2022/06/08 00:03:32;;;;;;;6.38;3.65;;;;;;;15.22;90.28;99130.75;5011492;28;20042;-71
2022/06/08 00:05:58;;;;;;;6.05;4.13;;;;;;;15.18;90.35;99124.00;5010736;28;20473;-71
2022/06/08 00:08:23;;;;;;;4.55;3.83;;;;;;;15.15;90.29;99124.25;5011663;28;20053;-71
2022/06/08 00:10:49;;;;;;;4.30;3.15;;;;;;;15.12;90.67;99112.06;5011882;28;20041;-71
2022/06/08 00:13:14;;;;;;;3.85;3.45;;;;;;;15.11;90.27;99115.69;5011963;28;20039;-71
2022/06/08 00:15:42;;;;;;;4.13;3.03;;;;;;;15.10;90.23;99115.81;5011344;28;20582;-71
2022/06/08 00:18:09;;;;;;;4.70;3.15;;;;;;;15.08;90.02;99115.91;5010501;28;20054;-71
2022/06/08 00:20:35;;;;;;;4.93;3.45;;;;;;;15.06;90.03;99109.88;5011321;28;20038;-71
2022/06/08 00:23:00;;;;;;;7.82;3.67;;;;;;;15.03;89.55;99112.78;5011077;28;20042;-71
2022/06/08 00:25:26;;;;;;;6.00;3.28;;;;;;;15.02;89.55;99105.78;5011561;28;20037;-71
2022/06/08 00:27:51;;;;;;;3.58;2.97;;;;;;;15.03;90.00;99108.31;4993042;28;20030;-71
2022/06/08 00:30:17;;;;;;;3.35;2.90;;;;;;;15.03;89.94;99099.50;5011561;28;20123;-71
2022/06/08 00:32:42;;;;;;;3.47;2.58;;;;;;;15.03;89.69;99094.19;5011210;28;20486;-72
2022/06/08 00:35:09;;;;;;;5.55;2.92;;;;;;;15.02;89.89;99101.31;5010882;28;20057;-71
2022/06/08 00:37:34;;;;;;;3.67;2.88;;;;;;;15.01;89.76;99096.13;4992721;28;20045;-71
2022/06/08 00:40:00;;;;;;;4.78;2.97;;;;;;;14.98;89.56;99105.16;5011105;28;20034;-71
2022/06/08 00:42:26;;;;;;;6.95;2.50;;;;;;;14.97;89.04;99098.19;5011176;28;20037;-71
2022/06/08 00:44:59;;;;;;;6.75;2.85;;;;;;;14.96;88.97;99092.97;5010759;28;20092;-71
2022/06/08 00:47:33;;;;;;;4.63;2.60;;;;;;;14.92;88.45;99092.38;5009614;28;20061;-71
2022/06/08 00:50:15;;;;;;;6.88;2.28;;;;;;;14.91;88.41;99089.84;5010591;28;20042;-71
2022/06/08 00:52:43;;;;;;;3.17;2.35;;;;;;;14.85;87.93;99085.03;5011010;28;20036;-71
2022/06/08 00:55:10;;;;;;;4.72;2.83;;;;;;;14.80;88.17;99088.88;5009878;28;20030;-71
2022/06/08 00:57:51;;;;;;;3.13;2.60;;;;;;;14.80;88.37;99080.91;5010074;28;20030;-71
2022/06/08 01:00:25;;;;;;;4.78;2.70;;;;;;;14.74;87.94;99086.72;5008818;28;20045;-71
2022/06/08 01:02:50;;;;;;;3.35;2.65;;;;;;;14.74;88.68;99085.84;5030274;28;20038;-71
2022/06/08 01:05:19;;;;;;;6.18;2.90;;;;;;;14.70;88.42;99076.47;5030626;28;20034;-72
2022/06/08 01:07:45;;;;;;;4.03;2.45;;;;;;;14.66;87.97;99075.84;5029945;28;20045;-71
2022/06/08 01:10:16;;;;;;;3.53;2.58;;;;;;;14.65;88.62;99079.47;5030906;28;20079;-71
2022/06/08 01:12:42;;;;;;;5.22;2.50;;;;;;;14.63;87.94;99073.44;5030246;28;20061;-71
2022/06/08 01:15:11;;;;;;;4.45;2.30;;;;;;;14.62;89.00;99065.56;5019170;28;20577;-71
2022/06/08 01:17:36;;;;;;;3.78;2.97;;;;;;;14.59;89.70;99069.31;4990152;28;20038;-71
2022/06/08 01:20:03;;;;;;;8.15;2.97;;;;;;;14.53;89.16;99067.97;4990766;28;20095;-71
2022/06/08 01:22:28;;;;;;;3.47;3.17;;;;;;;14.49;89.85;99063.00;4990582;28;20043;-71
2022/06/08 01:24:54;;;;;;;3.60;2.83;;;;;;;14.46;89.26;99057.94;4993386;28;20042;-71
2022/06/08 01:28:06;;;;;;;4.32;3.05;;;;;;;14.38;90.59;99056.72;5009615;28;20046;-71
2022/06/08 01:30:49;;;;;;;4.55;3.30;;;;;;;14.29;90.12;99044.16;4983053;28;20099;-72
2022/06/08 01:33:59;;;;;;;5.55;2.50;;;;;;;14.24;90.30;99042.81;5010078;28;20088;-72
2022/06/08 01:36:49;;;;;;;5.88;2.80;;;;;;;14.17;90.55;99043.28;4948601;28;20534;-72
2022/06/08 01:39:24;;;;;;;3.78;2.15;;;;;;;14.14;90.42;99034.72;4949120;28;20066;-72
2022/06/08 01:42:28;;;;;;;3.35;2.38;;;;;;;14.07;90.55;99031.69;4991120;28;20030;-72
2022/06/08 01:45:29;;;;;;;3.88;2.40;;;;;;;14.07;90.42;99030.84;4945939;28;20054;-72
2022/06/08 01:48:19;;;;;;;6.32;2.65;;;;;;;14.09;90.32;99028.94;4995382;28;20034;-73
2022/06/08 01:51:03;;;;;;;4.47;2.30;;;;;;;14.10;89.20;99027.97;5009475;28;20038;-72
2022/06/08 01:53:46;;;;;;;4.25;2.78;;;;;;;14.11;89.45;99022.56;5009740;28;20087;-72
2022/06/08 01:56:24;;;;;;;5.82;2.65;;;;;;;14.13;89.09;99020.63;4991413;28;20042;-72
2022/06/08 01:59:22;;;;;;;3.22;2.40;;;;;;;14.12;89.88;99018.09;5010021;28;20513;-72
2022/06/08 02:02:02;;;;;;;3.20;2.40;;;;;;;14.11;89.71;99011.94;5003240;28;20742;-72
2022/06/08 02:04:37;;;;;;;10.38;2.53;;;;;;;14.09;89.28;98997.13;5009223;28;20745;-72
2022/06/08 02:07:14;;;;;;;5.18;2.55;;;;;;;14.12;89.32;98999.53;5019891;28;20041;-71
2022/06/08 02:09:46;;;;;;;3.55;2.50;;;;;;;14.08;89.16;98996.28;5029280;28;20425;-72
2022/06/08 02:12:13;;;;;;;2.03;1.73;;;;;;;14.07;89.44;98994.59;5029175;28;20037;-72
2022/06/08 02:14:46;;;;;;;7.45;1.92;;;;;;;14.07;89.23;98978.69;5029627;28;20096;-70
2022/06/08 02:17:29;;;;;;;9.02;2.95;;;;;;;14.06;89.39;98984.13;5028419;28;20116;-69
2022/06/08 02:20:01;;;;;;;6.15;2.20;;;;;;;14.02;89.08;98982.66;5029441;28;20171;-70
2022/06/08 02:22:34;;;;;;;3.20;2.33;;;;;;;13.99;89.46;98980.25;5029271;28;20033;-70
2022/06/08 02:25:08;;;;;;;2.88;2.17;;;;;;;13.99;88.88;98970.47;5029235;28;20036;-70
2022/06/08 02:27:48;;;;;;;3.28;2.40;;;;;;;13.95;88.79;98967.25;5028482;28;20040;-71
2022/06/08 02:30:24;;;;;;;9.23;2.83;;;;;;;13.94;89.51;98972.66;5029013;28;20061;-70
2022/06/08 02:35:39;;;;;;;10.57;4.50;;;;;;;13.91;88.49;98967.59;5028891;28;20091;-71
2022/06/08 02:38:10;;;;;;;4.82;3.17;;;;;;;13.87;89.00;98959.00;5028420;28;20029;-70
2022/06/08 02:40:40;;;;;;;6.40;3.95;;;;;;;13.85;90.22;98962.75;5029438;28;20401;-70
2022/06/08 02:43:11;;;;;;;2.97;2.25;;;;;;;13.83;90.29;98960.22;5030652;28;20035;-71
2022/06/08 02:45:41;;;;;;;4.22;3.42;;;;;;;13.83;89.85;98957.56;5018927;28;20624;-71
2022/06/08 02:48:10;;;;;;;4.13;2.45;;;;;;;13.79;90.68;98958.75;5008805;28;20485;-70
2022/06/08 02:50:38;;;;;;;5.22;2.97;;;;;;;13.78;91.12;98959.69;5008904;28;20034;-70
2022/06/08 02:53:29;;;;;;;6.03;3.95;;;;;;;13.72;90.48;98945.13;5009136;28;20030;-70
2022/06/08 02:56:03;;;;;;;5.22;3.38;;;;;;;13.69;91.46;98939.22;5008361;28;20494;-70
2022/06/08 02:58:40;;;;;;;4.53;2.72;;;;;;;13.70;91.06;98941.75;5009061;28;20045;-70
2022/06/08 03:01:14;;;;;;;6.00;3.13;;;;;;;13.68;91.12;98941.03;5009171;28;20045;-71
2022/06/08 03:03:49;;;;;;;8.65;4.13;;;;;;;13.65;90.84;98938.59;5008877;28;20042;-71
2022/06/08 03:06:20;;;;;;;3.70;2.45;;;;;;;13.67;90.93;98934.03;5008220;28;20049;-71
2022/06/08 03:08:53;;;;;;;4.90;3.65;;;;;;;13.65;90.89;98935.94;5009142;28;20128;-71
2022/06/08 03:11:20;;;;;;;7.03;3.13;;;;;;;13.65;90.66;98941.25;5009157;28;20841;-71
2022/06/08 03:13:52;;;;;;;4.10;2.60;;;;;;;13.66;90.86;98932.34;5009024;28;20042;-70
2022/06/08 03:16:39;;;;;;;3.58;2.20;;;;;;;13.68;90.57;98932.22;5003573;28;20521;-70
2022/06/08 03:19:06;;;;;;;3.30;2.22;;;;;;;13.71;90.37;98926.72;4992371;28;20063;-70
2022/06/08 03:21:32;;;;;;;5.07;2.25;;;;;;;13.69;89.50;98923.34;4992827;28;20038;-70
2022/06/08 03:23:57;;;;;;;5.28;2.40;;;;;;;13.69;89.80;98924.16;4992841;28;20038;-70
2022/06/08 03:26:25;;;;;;;4.93;2.08;;;;;;;13.69;90.29;98926.81;4992286;28;20046;-71
2022/06/08 03:28:51;;;;;;;2.85;2.38;;;;;;;13.73;90.17;98928.28;4992951;28;20438;-70
2022/06/08 03:31:17;;;;;;;2.65;2.05;;;;;;;13.75;89.53;98925.50;4992817;28;20034;-70
2022/06/08 03:33:42;;;;;;;4.30;1.80;;;;;;;13.77;89.44;98934.19;4992785;28;20035;-70
2022/06/08 03:36:08;;;;;;;6.85;2.30;;;;;;;13.80;89.33;98933.94;4992308;28;20516;-71
2022/06/08 03:38:33;;;;;;;2.60;1.90;;;;;;;13.82;88.06;98932.03;4995199;28;20038;-71
2022/06/08 03:40:59;;;;;;;6.30;2.22;;;;;;;13.83;87.81;98936.38;4992769;28;20127;-71
2022/06/08 03:43:24;;;;;;;3.97;2.08;;;;;;;13.83;88.39;98927.56;4992669;28;20038;-71
2022/06/08 03:45:53;;;;;;;3.97;1.98;;;;;;;13.87;87.86;98927.22;4992306;28;20379;-71
2022/06/08 03:48:19;;;;;;;3.17;2.13;;;;;;;13.89;86.69;98927.09;4998080;28;20065;-71
2022/06/08 03:50:49;;;;;;;4.03;2.20;;;;;;;13.86;87.57;98928.19;5011461;28;20113;-71
2022/06/08 03:53:21;;;;;;;2.45;2.00;;;;;;;13.91;87.75;98925.19;5012270;28;20048;-71
2022/06/08 03:55:48;;;;;;;4.10;2.03;;;;;;;13.94;87.39;98930.25;4994444;28;20489;-71
2022/06/08 03:58:14;;;;;;;6.18;2.13;;;;;;;13.95;88.04;98930.13;5011840;28;20063;-71
2022/06/08 04:00:41;;;;;;;3.08;2.20;;;;;;;13.99;87.71;98932.53;5012410;28;20060;-71
2022/06/08 04:03:09;;;;;;;3.70;2.20;;;;;;;14.06;87.54;98933.75;5011668;28;20046;-71
2022/06/08 04:05:35;;;;;;;3.13;1.88;;;;;;;14.08;87.42;98934.50;5011706;28;20370;-71
2022/06/08 04:08:00;;;;;;;3.30;1.50;;;;;;;14.12;87.43;98928.81;5011249;28;20054;-71
2022/06/08 04:10:26;;;;;;;4.55;1.92;;;;;;;14.17;85.89;98931.94;5011583;28;20069;-71
2022/06/08 04:12:51;;;;;;;3.45;1.73;;;;;;;14.23;86.15;98927.16;4994365;28;20436;-71
2022/06/08 04:15:41;;;;;;;2.45;1.60;;;;;;;14.25;86.34;98919.91;5011841;28;20663;-71
2022/06/08 04:18:02;;;;;;;2.58;2.03;;;;;;;14.25;86.42;98922.56;5010917;28;20073;-71
2022/06/08 04:20:28;;;;;;;3.40;2.17;;;;;;;14.31;86.03;98922.91;5011579;28;20054;-71
2022/06/08 04:22:53;;;;;;;3.30;2.20;;;;;;;14.34;85.75;98920.03;5011345;28;20104;-71
2022/06/08 04:25:19;;;;;;;2.92;1.70;;;;;;;14.42;85.87;98918.56;5011491;28;20069;-71
2022/06/08 04:27:44;;;;;;;3.05;2.08;;;;;;;14.45;86.10;98911.25;5011568;28;20026;-71
2022/06/08 04:30:10;;;;;;;3.72;2.15;;;;;;;14.52;85.28;98914.22;5010344;28;20037;-72
2022/06/08 04:32:36;;;;;;;5.22;2.78;;;;;;;14.60;84.83;98911.84;5011124;28;20106;-71
2022/06/08 04:35:02;;;;;;;1.88;1.50;;;;;;;14.66;84.41;98913.16;5011145;28;20439;-71
2022/06/08 04:37:28;;;;;;;2.05;1.60;;;;;;;14.71;84.44;98911.81;5010611;28;20034;-71
2022/06/08 04:39:53;;;;;;;2.72;2.10;;;;;;;14.74;83.97;98906.28;4994180;28;20030;-71
2022/06/08 04:42:18;;;;;;;3.40;2.08;;;;;;;14.79;84.52;98900.59;5011098;28;20037;-71
2022/06/08 04:44:44;;;;;;;2.88;1.63;;;;;;;14.81;84.97;98911.94;5011004;28;20434;-72
2022/06/08 04:47:10;;;;;;;2.65;1.65;;;;;;;14.80;84.77;98897.81;5009876;28;20050;-73
2022/06/08 04:49:35;;;;;;;3.55;2.00;;;;;;;14.84;85.18;98897.56;5010599;28;20108;-71
2022/06/08 04:52:01;;;;;;;3.05;2.17;;;;;;;14.90;84.25;98897.09;5010845;28;20037;-72
2022/06/08 04:54:27;;;;;;;3.90;1.77;;;;;;;14.89;85.38;98892.72;5010574;28;20449;-73
2022/06/08 04:56:52;;;;;;;8.77;2.92;;;;;;;14.87;85.20;98895.53;5009395;28;20456;-72
2022/06/08 04:59:18;;;;;;;5.60;2.53;;;;;;;14.91;85.94;98893.44;5011019;28;20037;-71
2022/06/08 05:01:43;;;;;;;11.02;2.72;;;;;;;14.91;85.83;98888.97;5010605;28;20508;-71
2022/06/08 05:04:08;;;;;;;2.40;2.13;;;;;;;14.96;86.03;98892.13;5009700;28;20030;-71
2022/06/08 05:06:34;;;;;;;6.78;3.10;;;;;;;15.00;85.71;98890.88;5008945;28;20033;-70
2022/06/08 05:08:59;;;;;;;4.88;2.20;;;;;;;15.03;85.64;98882.66;5010253;28;20088;-72
2022/06/08 05:11:25;;;;;;;5.47;2.75;;;;;;;15.11;85.61;98879.41;5009147;28;20037;-71
2022/06/08 05:13:50;;;;;;;3.33;2.38;;;;;;;15.16;85.64;98874.56;4993516;28;20034;-72
2022/06/08 05:16:16;;;;;;;6.90;2.58;;;;;;;15.22;86.13;98870.53;5008890;28;20068;-71
2022/06/08 05:18:41;;;;;;;4.45;2.17;;;;;;;15.23;84.94;98870.44;5010304;28;20132;-71
2022/06/08 05:21:07;;;;;;;3.28;2.15;;;;;;;15.31;84.28;98868.91;5009695;28;20497;-72
2022/06/08 05:23:36;;;;;;;5.10;2.15;;;;;;;15.37;84.02;98863.94;5001282;28;20456;-72
2022/06/08 05:26:02;;;;;;;7.15;2.10;;;;;;;15.44;82.69;98858.97;4990065;28;20046;-72
2022/06/08 05:28:28;;;;;;;4.13;1.85;;;;;;;15.52;82.54;98853.84;4990384;28;20069;-71
2022/06/08 05:30:56;;;;;;;5.13;2.17;;;;;;;15.60;82.65;98850.53;4993076;28;20042;-72
2022/06/08 05:33:24;;;;;;;6.07;2.30;;;;;;;15.67;81.40;98846.38;4990322;28;20042;-72
2022/06/08 05:35:49;;;;;;;7.20;2.10;;;;;;;15.73;81.81;98848.56;4989809;28;20486;-72
2022/06/08 05:38:14;;;;;;;6.22;2.28;;;;;;;15.80;81.63;98847.06;4990573;28;20041;-72
2022/06/08 05:40:40;;;;;;;2.63;1.88;;;;;;;15.89;80.42;98842.75;4990015;28;20035;-73
2022/06/08 05:43:08;;;;;;;3.80;2.20;;;;;;;15.92;80.35;98845.13;4989709;28;20038;-72
2022/06/08 05:45:34;;;;;;;5.05;2.15;;;;;;;15.99;80.31;98840.97;4990181;28;20497;-72
2022/06/08 05:48:01;;;;;;;4.22;1.95;;;;;;;16.05;80.62;98843.13;4989361;28;20043;-73
2022/06/08 05:50:27;;;;;;;3.67;1.90;;;;;;;16.10;79.77;98838.25;4990227;28;20125;-72
2022/06/08 05:52:53;;;;;;;6.70;2.70;;;;;;;16.17;80.26;98841.22;5002173;28;20452;-72
2022/06/08 05:55:21;;;;;;;6.18;2.88;;;;;;;16.16;80.49;98831.53;5009703;28;20117;-72
2022/06/08 05:57:46;;;;;;;3.22;2.05;;;;;;;16.19;79.19;98828.59;5008954;28;20034;-72
2022/06/08 06:00:16;;;;;;;6.53;3.65;;;;;;;16.24;78.96;98831.72;5009677;28;20106;-72
2022/06/08 06:02:42;;;;;;;5.55;2.72;;;;;;;16.30;78.82;98833.84;5010163;28;20022;-72
2022/06/08 06:05:09;;;;;;;10.00;2.42;;;;;;;16.36;78.35;98821.78;5009186;28;20037;-72
2022/06/08 06:07:35;;;;;;;4.85;1.88;;;;;;;16.38;77.83;98825.16;5008901;28;20026;-72
2022/06/08 06:10:03;;;;;;;3.88;2.25;;;;;;;16.45;78.06;98828.97;5009841;28;20025;-72
2022/06/08 06:12:30;;;;;;;3.38;2.08;;;;;;;16.48;78.38;98826.03;5008983;28;20156;-73
2022/06/08 06:14:57;;;;;;;3.60;2.10;;;;;;;16.55;77.82;98821.00;5009362;28;20044;-72
2022/06/08 06:17:22;;;;;;;5.90;3.00;;;;;;;16.61;77.56;98820.44;5007794;28;20045;-72
2022/06/08 06:19:48;;;;;;;4.32;2.00;;;;;;;16.67;77.02;98819.91;5009173;28;20088;-72
2022/06/08 06:22:13;;;;;;;6.43;2.38;;;;;;;16.73;76.81;98814.00;5008610;28;20046;-72
2022/06/08 06:24:39;;;;;;;3.95;2.17;;;;;;;16.75;76.61;98814.72;5009105;28;20034;-72
2022/06/08 06:27:05;;;;;;;3.55;2.10;;;;;;;16.76;77.19;98815.59;5008531;28;20030;-72
2022/06/08 06:29:30;;;;;;;3.63;2.22;;;;;;;16.78;76.40;98810.97;5009765;28;20048;-72
2022/06/08 06:32:02;;;;;;;6.45;2.42;;;;;;;16.85;76.57;98811.28;5008716;28;20034;-72
2022/06/08 06:34:29;;;;;;;4.03;1.75;;;;;;;16.90;76.20;98801.03;5008877;28;20030;-72
2022/06/08 06:36:55;;;;;;;5.30;2.13;;;;;;;16.89;76.59;98799.38;5008441;28;20038;-72
2022/06/08 06:39:22;;;;;;;11.38;2.30;;;;;;;16.88;76.34;98798.53;5008865;28;20034;-73
2022/06/08 06:41:49;;;;;;;4.22;1.95;;;;;;;16.91;76.53;98800.91;5009540;28;20057;-72
2022/06/08 06:44:17;;;;;;;5.20;2.15;;;;;;;16.95;76.52;98798.78;5009021;28;20552;-72
2022/06/08 06:46:43;;;;;;;4.85;2.08;;;;;;;16.98;75.81;98800.34;5008552;28;20528;-73
2022/06/08 06:49:09;;;;;;;4.68;2.13;;;;;;;17.02;76.17;98805.25;5008847;28;20038;-72
2022/06/08 06:51:35;;;;;;;4.45;1.95;;;;;;;17.03;75.38;98796.28;5008997;28;20092;-72
2022/06/08 06:54:06;;;;;;;3.58;1.98;;;;;;;17.08;75.96;98790.50;5012384;28;20519;-72
2022/06/08 06:56:35;;;;;;;5.32;2.45;;;;;;;17.08;75.27;98799.38;5012654;28;20108;-72
2022/06/08 06:59:01;;;;;;;5.60;2.00;;;;;;;17.10;74.84;98797.38;5012643;28;20087;-72
2022/06/08 07:01:27;;;;;;;4.43;2.28;;;;;;;17.16;74.91;98794.16;5013019;28;20042;-72
2022/06/08 07:03:52;;;;;;;5.72;2.55;;;;;;;17.17;74.41;98795.00;5013027;28;20065;-73
2022/06/08 07:06:18;;;;;;;4.43;2.35;;;;;;;17.22;74.15;98803.41;4994240;28;20042;-73
2022/06/08 07:08:44;;;;;;;2.95;1.80;;;;;;;17.27;73.34;98803.81;4995687;28;20120;-73
2022/06/08 07:13:56;;;;;;;4.75;1.70;;;;;;;17.57;73.09;98809.94;5013185;28;20091;-73
2022/06/08 07:16:21;;;;;;;6.00;2.10;;;;;;;17.70;71.81;98804.31;4994484;28;20452;-73
2022/06/08 07:18:47;;;;;;;6.85;2.75;;;;;;;17.87;71.51;98805.38;5012949;28;20037;-72
2022/06/08 07:21:12;;;;;;;10.90;2.67;;;;;;;18.00;70.17;98805.91;5002915;28;20474;-73
2022/06/08 07:23:38;;;;;;;11.23;2.78;;;;;;;18.09;70.44;98791.69;4993338;28;20041;-72
2022/06/08 07:26:03;;;;;;;7.53;2.10;;;;;;;18.19;69.86;98794.31;4992446;28;20038;-72
2022/06/08 07:28:29;;;;;;;6.05;2.97;;;;;;;18.24;68.90;98784.03;4975319;28;20046;-72
2022/06/08 07:30:55;;;;;;;4.47;2.15;;;;;;;18.30;69.01;98788.75;4975749;28;20053;-74
2022/06/08 07:33:20;;;;;;;4.93;2.38;;;;;;;18.37;67.59;98789.00;4992809;28;20035;-72
2022/06/08 07:35:46;;;;;;;8.07;3.17;;;;;;;18.45;67.62;98786.41;4992588;28;20709;-72
2022/06/08 07:38:12;;;;;;;5.70;2.10;;;;;;;18.55;68.15;98786.34;4991728;28;20176;-72
2022/06/08 07:40:37;;;;;;;5.55;1.92;;;;;;;18.65;67.93;98779.94;4994737;28;20030;-72
2022/06/08 07:43:03;;;;;;;4.93;2.42;;;;;;;18.71;67.50;98777.69;4992588;28;20143;-72
2022/06/08 07:45:29;;;;;;;4.88;2.20;;;;;;;18.74;67.68;98769.38;4997253;28;20033;-72
2022/06/08 07:50:38;;;;;;;4.65;2.00;;;;;;;18.87;67.45;98775.19;5011806;28;20501;-72
2022/06/08 07:53:03;;;;;;;7.45;2.28;;;;;;;19.05;67.17;98775.16;5011590;28;20120;-72
2022/06/08 07:55:29;;;;;;;5.38;2.60;;;;;;;19.20;66.73;98767.47;4994366;28;20149;-71
2022/06/08 07:57:54;;;;;;;6.28;2.60;;;;;;;19.36;65.66;98764.88;5011171;28;20026;-72
2022/06/08 08:00:21;;;;;;;5.20;2.40;;;;;;;19.49;65.23;98767.13;5011415;28;20038;-72
2022/06/08 08:02:47;;;;;;;6.85;2.33;;;;;;;19.61;64.49;98773.06;5011756;28;20037;-72
2022/06/08 08:05:14;;;;;;;11.57;2.95;;;;;;;19.73;64.25;98761.97;5011721;28;20034;-72
2022/06/08 08:07:41;;;;;;;5.03;2.58;;;;;;;19.74;63.30;98757.47;5010794;28;20041;-72
2022/06/08 08:10:09;;;;;;;7.70;3.67;;;;;;;19.74;62.63;98762.81;5011514;28;20053;-72
2022/06/08 08:12:36;;;;;;;3.75;1.95;;;;;;;19.78;63.16;98763.31;5011241;28;20038;-72
2022/06/08 08:15:02;;;;;;;9.20;2.83;;;;;;;19.84;63.28;98760.88;5011841;28;20603;-72
2022/06/08 08:17:27;;;;;;;4.68;2.63;;;;;;;19.79;63.10;98765.84;5010357;28;20088;-72
2022/06/08 08:19:52;;;;;;;10.43;2.35;;;;;;;19.86;62.96;98764.22;5011167;28;20489;-72
2022/06/08 08:22:20;;;;;;;8.57;3.25;;;;;;;19.94;63.06;98766.91;5011257;28;20046;-72
2022/06/08 08:24:45;;;;;;;11.23;3.08;;;;;;;19.86;61.12;98763.34;5011183;28;20034;-72
2022/06/08 08:27:11;;;;;;;11.55;2.95;;;;;;;19.77;61.78;98765.16;5010552;28;20022;-72
2022/06/08 08:29:36;;;;;;;6.55;2.05;;;;;;;19.75;62.39;98761.81;5011356;28;20042;-72
2022/06/08 08:32:02;;;;;;;9.45;3.00;;;;;;;19.73;61.95;98761.13;5011204;28;20056;-71
2022/06/08 08:34:27;;;;;;;10.80;2.63;;;;;;;19.68;62.18;98756.25;5011378;28;20069;-72
2022/06/08 08:36:53;;;;;;;9.85;3.35;;;;;;;19.63;62.18;98758.53;5010303;28;20025;-73
2022/06/08 08:39:19;;;;;;;6.78;2.40;;;;;;;19.67;61.83;98756.41;5011550;28;20492;-72
2022/06/08 08:44:41;;;;;;;12.48;2.95;;;;;;;19.72;61.43;98759.47;5010284;28;20045;-72
2022/06/08 08:47:28;;;;;;;6.35;2.80;;;;;;;19.76;61.36;98760.81;5010135;28;20448;-72
2022/06/08 08:49:57;;;;;;;5.93;3.08;;;;;;;19.72;60.99;98756.78;4995092;28;20034;-72
2022/06/08 08:52:41;;;;;;;10.48;3.05;;;;;;;19.68;61.28;98752.75;5010430;28;20045;-72
2022/06/08 08:55:36;;;;;;;10.05;2.65;;;;;;;19.60;62.26;98753.50;5010890;28;20041;-72
2022/06/08 08:58:12;;;;;;;14.95;4.82;;;;;;;19.58;63.08;98752.81;5009900;28;20489;-72
2022/06/08 09:00:51;;;;;;;8.75;2.78;;;;;;;19.48;62.36;98754.78;5011410;28;20462;-72
2022/06/08 09:03:32;;;;;;;8.48;3.25;;;;;;;19.37;62.29;98757.69;5010639;28;20046;-72
2022/06/08 09:06:12;;;;;;;7.80;3.30;;;;;;;19.26;62.21;98750.78;5010059;28;20515;-72
2022/06/08 09:08:39;;;;;;;9.93;2.92;;;;;;;19.20;62.35;98749.59;5009705;28;20042;-72
2022/06/08 09:11:16;;;;;;;9.00;2.60;;;;;;;19.20;62.18;98751.44;5010157;28;20034;-72
2022/06/08 09:13:56;;;;;;;6.70;3.03;;;;;;;19.15;62.46;98743.00;5010886;28;20030;-72
2022/06/08 09:16:38;;;;;;;8.43;2.95;;;;;;;19.13;62.77;98750.38;5008084;28;20037;-72
2022/06/08 09:19:22;;;;;;;4.22;2.20;;;;;;;19.08;62.99;98743.66;5010413;28;20030;-72
2022/06/08 09:21:49;;;;;;;9.95;3.30;;;;;;;19.05;63.98;98748.44;5009397;28;20033;-72
2022/06/08 09:24:28;;;;;;;10.15;3.65;;;;;;;19.00;65.03;98756.94;5010041;28;20037;-72
2022/06/08 09:27:05;;;;;;;7.68;3.25;;;;;;;18.96;66.61;98758.25;5009110;28;20091;-72
2022/06/08 09:29:30;;;;;;;9.07;2.83;;;;;;;18.90;66.91;98755.34;5010021;28;20037;-72
2022/06/08 09:31:56;;;;;;;6.78;3.10;;;;;;;18.80;67.09;98758.09;5009617;28;20088;-72
2022/06/08 09:34:26;;;;;;;12.02;3.75;;;;;;;18.68;68.25;98760.16;5007409;28;20068;-73
2022/06/08 09:37:24;;;;;;;4.45;2.38;;;;;;;18.60;69.33;98768.06;5008953;28;20034;-73
2022/06/08 09:39:50;;;;;;;8.10;2.90;;;;;;;18.47;69.34;98767.59;5009871;28;20041;-73
2022/06/08 09:42:34;;;;;;;7.72;2.67;;;;;;;18.33;70.92;98767.09;5010348;28;20100;-73
2022/06/08 09:45:38;;;;;;;10.98;3.03;;;;;;;18.20;72.20;98770.13;5009740;28;20497;-74
2022/06/08 09:51:27;;;;;;;10.65;4.38;;;;;;;17.86;74.35;98787.72;5009931;28;20544;-73
2022/06/08 09:54:14;;;;;;;11.30;3.90;;;;;;;17.72;75.07;98788.97;5009164;28;20876;-73
2022/06/08 09:57:02;;;;;;;12.00;3.60;;;;;;;17.66;77.19;98792.25;5008796;28;20486;-73
2022/06/08 09:59:37;;;;;;;7.07;3.00;;;;;;;17.60;77.27;98796.34;5009991;28;20042;-73
2022/06/08 10:02:33;;;;;;;7.87;3.73;;;;;;;17.49;77.17;98791.16;5009753;28;20026;-73
2022/06/08 10:05:24;;;;;;;10.00;5.55;;;;;;;17.39;78.92;98793.84;5009911;28;20268;-73
2022/06/08 10:08:22;;;;;;;7.63;3.30;;;;;;;17.23;79.12;98788.25;5008914;28;20061;-73
2022/06/08 10:11:00;;;;;;;6.00;2.90;;;;;;;17.11;79.88;98783.09;5009672;28;20056;-73
2022/06/08 10:13:42;;;;;;;6.93;3.28;;;;;;;17.11;80.13;98787.59;5009089;28;20041;-72
2022/06/08 10:16:18;;;;;;;7.90;3.65;;;;;;;17.09;80.92;98786.88;5008240;28;20386;-72
2022/06/08 10:18:46;;;;;;;;;;;;;;;17.09;80.53;98786.88;5010129;28;20034;-72
2022/06/08 10:21:16;;;;;;;8.75;3.95;;;;;;;17.05;81.70;98788.13;5009900;28;19941;-72
2022/06/08 10:23:58;;;;;;;9.10;4.20;;;;;;;17.00;82.25;98791.22;5009756;28;20037;-72
2022/06/08 10:26:38;;;;;;;7.82;3.42;;;;;;;17.02;82.46;98783.94;5008898;28;20048;-72
2022/06/08 10:29:40;;;;;;;6.82;2.97;;;;;;;17.04;83.29;98781.97;5009640;28;20030;-73
2022/06/08 10:32:27;;;;;;;7.13;3.72;;;;;;;17.05;82.62;98769.50;5009587;28;20053;-72
2022/06/08 10:34:54;;;;;;;6.63;3.47;;;;;;;17.02;81.97;98775.13;5009726;28;20124;-72
2022/06/08 10:37:30;;;;;;;7.20;3.47;;;;;;;17.08;83.55;98771.88;5009054;28;20505;-72
2022/06/08 10:39:55;;;;;;;7.25;3.47;;;;;;;17.10;83.13;98768.09;5009775;28;20104;-72
2022/06/08 10:42:40;;;;;;;7.65;2.70;;;;;;;17.08;82.42;98764.75;5009793;28;20489;-72
2022/06/08 10:45:22;;;;;;;6.57;2.77;;;;;;;17.16;82.63;98766.69;5009432;28;20465;-72
2022/06/08 10:47:57;;;;;;;8.25;3.30;;;;;;;17.15;83.03;98754.34;5008915;28;20281;-72
2022/06/08 10:50:30;;;;;;;8.98;3.67;;;;;;;17.10;82.73;98753.94;5009162;28;20521;-72
2022/06/08 10:54:53;;;;;;;9.77;4.00;;;;;;;17.02;83.18;98751.97;5008861;28;20056;-72
2022/06/08 10:55:43;;;;;;;10.07;4.30;;;;;;;17.11;84.73;98745.81;5008867;28;20092;-72
2022/06/08 10:58:16;;;;;;;17.08;4.35;;;;;;;17.17;83.34;98749.72;5008906;28;20041;-72
2022/06/08 11:01:04;;;;;;;13.43;3.40;;;;;;;17.22;82.17;98741.31;5009145;28;20034;-72
2022/06/08 11:03:50;;;;;;;8.65;3.42;;;;;;;17.21;82.63;98745.81;5009318;28;20116;-72
2022/06/08 11:06:50;;;;;;;5.93;2.83;;;;;;;17.18;81.59;98738.09;5008244;28;20057;-72
2022/06/08 11:09:40;;;;;;;9.77;3.08;;;;;;;17.15;81.81;98733.03;4997012;28;20034;-72
2022/06/08 11:12:11;;;;;;;7.40;3.50;;;;;;;17.15;84.38;98723.25;4972407;28;20046;-72
2022/06/08 11:14:48;;;;;;;102.97;19.65;;;;;;;17.18;84.23;98730.13;4989415;28;20038;-72
2022/06/08 11:17:24;;;;;;;8.40;3.35;;;;;;;17.19;84.44;98725.63;4987899;28;20031;-72
2022/06/08 11:20:01;;;;;;;8.02;2.90;;;;;;;17.17;83.90;98715.94;4989019;28;20038;-72
2022/06/08 11:22:32;;;;;;;7.00;3.22;;;;;;;17.16;82.21;98714.25;4988976;28;20038;-72
2022/06/08 11:25:03;;;;;;;7.68;2.63;;;;;;;17.17;82.62;98713.25;4989247;28;20041;-72
2022/06/08 11:27:39;;;;;;;9.07;3.30;;;;;;;17.18;84.83;98711.47;4988171;28;20506;-73
2022/06/08 11:30:36;;;;;;;12.15;4.40;;;;;;;17.13;86.15;98706.56;4989731;28;20038;-72
2022/06/08 11:33:14;;;;;;;9.13;2.88;;;;;;;17.05;84.43;98705.59;4961949;28;20034;-73
2022/06/08 11:36:06;;;;;;;6.90;2.80;;;;;;;17.01;84.51;98710.38;4989144;28;20034;-72
2022/06/08 11:38:35;;;;;;;6.07;2.92;;;;;;;16.94;84.77;98707.44;4990054;28;20486;-72
2022/06/08 11:41:26;;;;;;;6.10;2.35;;;;;;;16.89;85.02;98712.34;4995313;28;20061;-72
2022/06/08 11:43:52;;;;;;;9.93;3.67;;;;;;;16.89;86.16;98707.03;4992778;28;20089;-73
2022/06/08 11:46:29;;;;;;;4.45;2.55;;;;;;;16.75;81.19;98705.59;4977941;28;20042;-72
2022/06/08 11:48:56;;;;;;;4.72;2.35;;;;;;;16.64;75.42;98707.59;4992711;28;20041;-73
2022/06/08 11:51:30;;;;;;;5.68;2.28;;;;;;;16.63;77.20;98706.72;4983634;28;20050;-73
2022/06/08 11:53:58;;;;;;;23.75;3.70;;;;;;;16.61;77.66;98706.00;4991365;28;20038;-72
2022/06/08 11:56:29;;;;;;;3.92;2.15;;;;;;;16.47;77.46;98704.63;4991736;28;20038;-73
2022/06/08 11:58:57;;;;;;;13.82;2.80;;;;;;;16.36;77.17;98699.44;4992105;28;20048;-73
2022/06/08 12:01:38;;;;;;;5.03;1.85;;;;;;;16.37;77.37;98700.31;4974325;28;20041;-73
2022/06/08 12:04:07;;;;;;;7.82;2.40;;;;;;;16.36;78.39;98699.44;4992374;28;20073;-73
2022/06/08 12:06:39;;;;;;;6.70;2.35;;;;;;;16.36;78.94;98699.44;4991129;28;20461;-72